sensor_id;sensor_type;location;lat;lon;timestamp;pressure;altitude;pressure_sealevel;temperature;humidity
68145;BME280;55400;51.824;-0.196;2024-01-10T00:03:37;102041.18;;;1.66;63.01
68145;BME280;55400;51.824;-0.196;2024-01-10T00:07:37;102042.96;;;1.59;63.19
68145;BME280;55400;51.824;-0.196;2024-01-10T00:19:37;102039.47;;;1.61;63.34
68145;BME280;55400;51.824;-0.196;2024-01-10T00:27:37;102032.03;;;1.58;63.42
68145;BME280;55400;51.824;-0.196;2024-01-10T00:31:37;102032.89;;;1.61;63.50
68145;BME280;55400;51.824;-0.196;2024-01-10T00:35:37;102037.08;;;1.56;63.48
68145;BME280;55400;51.824;-0.196;2024-01-10T00:39:37;102030.33;;;1.58;63.58
68145;BME280;55400;51.824;-0.196;2024-01-10T00:47:37;102033.0;;;1.62;63.68
68145;BME280;55400;51.824;-0.196;2024-01-10T00:51:37;102028.31;;;1.58;63.65
68145;BME280;55400;51.824;-0.196;2024-01-10T00:55:37;102022.6;;;1.59;63.68
68145;BME280;55400;51.824;-0.196;2024-01-10T00:59:37;102036.11;;;1.57;63.86
68145;BME280;55400;51.824;-0.196;2024-01-10T01:03:37;102036.11;;;1.53;63.86
68145;BME280;55400;51.824;-0.196;2024-01-10T01:11:37;102023.8;;;1.55;64.08
68145;BME280;55400;51.824;-0.196;2024-01-10T01:15:37;102030.08;;;1.50;64.19
68145;BME280;55400;51.824;-0.196;2024-01-10T01:19:37;102021.25;;;1.49;64.25
68145;BME280;55400;51.824;-0.196;2024-01-10T01:23:37;102018.19;;;1.52;64.31
68145;BME280;55400;51.824;-0.196;2024-01-10T01:27:37;102022.34999999999;;;1.53;64.30
68145;BME280;55400;51.824;-0.196;2024-01-10T01:31:37;102018.94;;;1.47;64.21
68145;BME280;55400;51.824;-0.196;2024-01-10T01:35:37;102009.59;;;1.50;64.23
68145;BME280;55400;51.824;-0.196;2024-01-10T01:39:37;102015.23;;;1.51;64.18
68145;BME280;55400;51.824;-0.196;2024-01-10T01:43:37;102015.23;;;1.45;64.15
68145;BME280;55400;51.824;-0.196;2024-01-10T01:51:37;102009.73;;;1.47;64.25
68145;BME280;55400;51.824;-0.196;2024-01-10T01:55:37;102007.93;;;1.46;64.14
68145;BME280;55400;51.824;-0.196;2024-01-10T01:59:37;102006.89;;;1.43;64.10
68145;BME280;55400;51.824;-0.196;2024-01-10T02:11:37;102009.33;;;1.39;63.97
68145;BME280;55400;51.824;-0.196;2024-01-10T02:15:37;102016.81999999999;;;1.35;63.74
68145;BME280;55400;51.824;-0.196;2024-01-10T02:19:37;102016.81999999999;;;1.31;63.73
68145;BME280;55400;51.824;-0.196;2024-01-10T02:23:37;102015.06000000001;;;1.28;63.78
68145;BME280;55400;51.824;-0.196;2024-01-10T02:31:37;102017.88;;;1.25;63.64
68145;BME280;55400;51.824;-0.196;2024-01-10T02:35:37;102017.88;;;1.20;63.64
68145;BME280;55400;51.824;-0.196;2024-01-10T02:39:37;102012.72;;;1.17;63.56
68145;BME280;55400;51.824;-0.196;2024-01-10T02:43:37;102011.78;;;1.13;63.64
68145;BME280;55400;51.824;-0.196;2024-01-10T02:47:37;102001.51;;;1.14;63.52
68145;BME280;55400;51.824;-0.196;2024-01-10T02:51:37;102007.14;;;1.11;63.45
68145;BME280;55400;51.824;-0.196;2024-01-10T02:55:37;102001.62;;;1.06;63.47
68145;BME280;55400;51.824;-0.196;2024-01-10T02:59:37;102000.51;;;1.03;63.48
68145;BME280;55400;51.824;-0.196;2024-01-10T03:03:37;101992.07;;;1.01;63.41
68145;BME280;55400;51.824;-0.196;2024-01-10T03:07:37;101992.07;;;0.99;63.39
68145;BME280;55400;51.824;-0.196;2024-01-10T03:11:37;101986.14;;;0.98;63.41
68145;BME280;55400;51.824;-0.196;2024-01-10T03:15:37;101990.23;;;0.97;63.32
68145;BME280;55400;51.824;-0.196;2024-01-10T03:19:37;101985.99;;;0.96;63.27
68145;BME280;55400;51.824;-0.196;2024-01-10T03:23:37;101980.18;;;0.94;63.27
68145;BME280;55400;51.824;-0.196;2024-01-10T03:27:37;101979.98999999999;;;0.93;63.27
68145;BME280;55400;51.824;-0.196;2024-01-10T03:31:37;101979.98999999999;;;0.94;63.27
68145;BME280;55400;51.824;-0.196;2024-01-10T03:35:37;101977.48;;;0.92;63.20
68145;BME280;55400;51.824;-0.196;2024-01-10T03:39:37;101981.19;;;0.93;63.22
68145;BME280;55400;51.824;-0.196;2024-01-10T03:43:38;101980.75;;;0.90;63.30
68145;BME280;55400;51.824;-0.196;2024-01-10T03:47:37;101974.97;;;0.87;63.32
68145;BME280;55400;51.824;-0.196;2024-01-10T03:51:38;101974.97;;;0.83;63.26
68145;BME280;55400;51.824;-0.196;2024-01-10T03:59:37;101972.09;;;0.82;63.22
68145;BME280;55400;51.824;-0.196;2024-01-10T04:03:38;101968.05;;;0.78;63.19
68145;BME280;55400;51.824;-0.196;2024-01-10T04:07:39;101968.05;;;0.76;63.06
68145;BME280;55400;51.824;-0.196;2024-01-10T04:11:37;101966.42;;;0.78;63.20
68145;BME280;55400;51.824;-0.196;2024-01-10T04:15:38;101966.54999999999;;;0.80;63.18
68145;BME280;55400;51.824;-0.196;2024-01-10T04:19:38;101966.54999999999;;;0.75;63.18
68145;BME280;55400;51.824;-0.196;2024-01-10T04:23:38;101964.26;;;0.72;62.92
68145;BME280;55400;51.824;-0.196;2024-01-10T04:27:38;101955.64;;;0.69;63.03
68145;BME280;55400;51.824;-0.196;2024-01-10T04:31:38;101955.42;;;0.73;62.95
68145;BME280;55400;51.824;-0.196;2024-01-10T04:35:38;101959.56;;;0.72;63.11
68145;BME280;55400;51.824;-0.196;2024-01-10T04:39:38;101964.59;;;0.73;63.08
68145;BME280;55400;51.824;-0.196;2024-01-10T04:47:38;101965.08;;;0.76;63.27
68145;BME280;55400;51.824;-0.196;2024-01-10T04:55:38;101959.34;;;0.77;63.38
68145;BME280;55400;51.824;-0.196;2024-01-10T04:59:38;101965.53;;;0.74;63.33
68145;BME280;55400;51.824;-0.196;2024-01-10T05:03:38;101963.31;;;0.73;63.36
68145;BME280;55400;51.824;-0.196;2024-01-10T05:07:38;101962.05;;;0.70;63.44
68145;BME280;55400;51.824;-0.196;2024-01-10T05:11:38;101958.48;;;0.74;63.53
68145;BME280;55400;51.824;-0.196;2024-01-10T05:15:38;101959.69;;;0.75;63.59
68145;BME280;55400;51.824;-0.196;2024-01-10T05:19:38;101960.88;;;0.78;63.64
68145;BME280;55400;51.824;-0.196;2024-01-10T05:23:38;101958.98;;;0.77;63.64
68145;BME280;55400;51.824;-0.196;2024-01-10T05:27:38;101955.84;;;0.79;63.68
68145;BME280;55400;51.824;-0.196;2024-01-10T05:31:38;101952.94;;;0.82;63.71
68145;BME280;55400;51.824;-0.196;2024-01-10T05:35:40;101950.98000000001;;;0.86;63.79
68145;BME280;55400;51.824;-0.196;2024-01-10T05:38:16;101950.98000000001;;;0.86;63.79
68145;BME280;55400;51.824;-0.196;2024-01-10T05:39:38;101950.98000000001;;;0.80;63.79
68145;BME280;55400;51.824;-0.196;2024-01-10T05:43:38;101947.45;;;0.82;64.01
68145;BME280;55400;51.824;-0.196;2024-01-10T05:51:38;101949.2;;;0.83;64.25
68145;BME280;55400;51.824;-0.196;2024-01-10T05:55:38;101945.82;;;0.87;64.37
68145;BME280;55400;51.824;-0.196;2024-01-10T05:59:38;101951.11;;;0.85;64.27
68145;BME280;55400;51.824;-0.196;2024-01-10T06:03:38;101947.41;;;0.86;64.46
68145;BME280;55400;51.824;-0.196;2024-01-10T06:07:38;101955.42;;;0.85;64.67
68145;BME280;55400;51.824;-0.196;2024-01-10T06:11:40;101955.42;;;0.84;64.67
68145;BME280;55400;51.824;-0.196;2024-01-10T06:15:38;101955.98;;;0.87;64.90
68145;BME280;55400;51.824;-0.196;2024-01-10T06:19:38;101959.72;;;0.89;65.09
68145;BME280;55400;51.824;-0.196;2024-01-10T06:23:38;101959.72;;;0.91;65.26
68145;BME280;55400;51.824;-0.196;2024-01-10T06:27:38;101963.51;;;0.87;65.37
68145;BME280;55400;51.824;-0.196;2024-01-10T06:31:38;101957.87;;;0.94;65.44
68145;BME280;55400;51.824;-0.196;2024-01-10T06:35:38;101966.54999999999;;;0.90;65.68
68145;BME280;55400;51.824;-0.196;2024-01-10T06:39:38;101956.46;;;0.87;65.95
68145;BME280;55400;51.824;-0.196;2024-01-10T06:43:38;101960.91;;;0.90;66.34
68145;BME280;55400;51.824;-0.196;2024-01-10T06:51:38;101965.71;;;0.91;66.86
68145;BME280;55400;51.824;-0.196;2024-01-10T06:55:38;101959.14;;;0.88;66.77
68145;BME280;55400;51.824;-0.196;2024-01-10T06:59:38;101957.95000000001;;;0.91;67.06
68145;BME280;55400;51.824;-0.196;2024-01-10T07:03:38;101957.95000000001;;;0.94;67.06
68145;BME280;55400;51.824;-0.196;2024-01-10T07:07:39;101962.87;;;0.97;67.39
68145;BME280;55400;51.824;-0.196;2024-01-10T07:11:38;101967.21;;;1.00;67.29
68145;BME280;55400;51.824;-0.196;2024-01-10T07:15:38;101967.21;;;0.98;67.39
68145;BME280;55400;51.824;-0.196;2024-01-10T07:19:38;101965.23;;;1.02;67.75
68145;BME280;55400;51.824;-0.196;2024-01-10T07:23:38;101964.73;;;1.03;67.74
68145;BME280;55400;51.824;-0.196;2024-01-10T07:27:38;101964.73;;;1.05;67.88
68145;BME280;55400;51.824;-0.196;2024-01-10T07:39:38;101974.3;;;1.07;68.53
68145;BME280;55400;51.824;-0.196;2024-01-10T07:43:38;101974.3;;;1.10;68.89
68145;BME280;55400;51.824;-0.196;2024-01-10T07:47:38;101980.89;;;1.08;68.29
68145;BME280;55400;51.824;-0.196;2024-01-10T07:51:42;101986.71;;;1.09;68.03
68145;BME280;55400;51.824;-0.196;2024-01-10T07:55:38;101986.71;;;1.03;68.03
68145;BME280;55400;51.824;-0.196;2024-01-10T07:59:38;101985.38;;;0.99;68.14
68145;BME280;55400;51.824;-0.196;2024-01-10T08:03:38;101987.40000000001;;;0.96;67.93
68145;BME280;55400;51.824;-0.196;2024-01-10T08:07:38;101987.40000000001;;;0.97;68.07
68145;BME280;55400;51.824;-0.196;2024-01-10T08:10:59;101991.0;;;0.97;68.56
68145;BME280;55400;51.824;-0.196;2024-01-10T08:11:38;101991.0;;;0.96;68.56
68145;BME280;55400;51.824;-0.196;2024-01-10T08:15:38;101995.4;;;0.92;68.58
68145;BME280;55400;51.824;-0.196;2024-01-10T08:19:38;101985.08;;;0.97;68.07
68145;BME280;55400;51.824;-0.196;2024-01-10T08:27:38;101997.6;;;1.01;68.27
68145;BME280;55400;51.824;-0.196;2024-01-10T08:31:38;101997.28;;;1.03;67.86
68145;BME280;55400;51.824;-0.196;2024-01-10T08:35:38;101997.28;;;1.06;67.86
68145;BME280;55400;51.824;-0.196;2024-01-10T08:39:38;102004.07;;;1.13;68.34
68145;BME280;55400;51.824;-0.196;2024-01-10T08:43:38;102002.86;;;1.19;67.82
68145;BME280;55400;51.824;-0.196;2024-01-10T08:47:38;102011.18000000001;;;1.26;68.02
68145;BME280;55400;51.824;-0.196;2024-01-10T08:55:39;102007.37000000001;;;1.35;67.98
68145;BME280;55400;51.824;-0.196;2024-01-10T08:59:40;102007.48;;;1.38;67.87
68145;BME280;55400;51.824;-0.196;2024-01-10T09:03:38;102004.64;;;1.39;67.81
68145;BME280;55400;51.824;-0.196;2024-01-10T09:07:38;102004.64;;;1.41;68.22
68145;BME280;55400;51.824;-0.196;2024-01-10T09:11:39;102010.93;;;1.44;68.27
68145;BME280;55400;51.824;-0.196;2024-01-10T09:15:38;102010.93;;;1.47;68.15
68145;BME280;55400;51.824;-0.196;2024-01-10T09:19:38;102001.12000000001;;;1.52;68.19
68145;BME280;55400;51.824;-0.196;2024-01-10T09:23:38;102001.12000000001;;;1.55;67.45
68145;BME280;55400;51.824;-0.196;2024-01-10T09:27:39;102005.3;;;1.56;67.82
68145;BME280;55400;51.824;-0.196;2024-01-10T09:31:38;102005.48999999999;;;1.61;67.68
68145;BME280;55400;51.824;-0.196;2024-01-10T09:35:38;102007.15;;;1.57;67.08
68145;BME280;55400;51.824;-0.196;2024-01-10T09:39:38;102007.89;;;1.60;67.51
68145;BME280;55400;51.824;-0.196;2024-01-10T09:45:10;102012.34;;;1.67;67.04
68145;BME280;55400;51.824;-0.196;2024-01-10T09:51:38;102007.47;;;1.70;67.06
68145;BME280;55400;51.824;-0.196;2024-01-10T09:55:38;102007.12;;;1.74;67.08
68145;BME280;55400;51.824;-0.196;2024-01-10T09:59:39;102005.18;;;1.75;66.79
68145;BME280;55400;51.824;-0.196;2024-01-10T10:03:38;102009.07999999999;;;1.81;67.20
68145;BME280;55400;51.824;-0.196;2024-01-10T10:07:46;102005.95;;;1.82;66.89
68145;BME280;55400;51.824;-0.196;2024-01-10T10:11:38;102004.96;;;1.84;66.93
68145;BME280;55400;51.824;-0.196;2024-01-10T10:15:39;102011.51999999999;;;1.88;67.33
68145;BME280;55400;51.824;-0.196;2024-01-10T10:19:40;102011.67;;;1.91;67.68
68145;BME280;55400;51.824;-0.196;2024-01-10T10:23:39;102016.11;;;1.96;67.12
68145;BME280;55400;51.824;-0.196;2024-01-10T10:27:38;102016.11;;;1.98;67.12
68145;BME280;55400;51.824;-0.196;2024-01-10T10:31:39;102011.55;;;1.99;67.20
68145;BME280;55400;51.824;-0.196;2024-01-10T10:35:39;102013.22;;;2.03;67.24
68145;BME280;55400;51.824;-0.196;2024-01-10T10:39:39;102004.63;;;2.07;66.92
68145;BME280;55400;51.824;-0.196;2024-01-10T10:44:52;101994.98;;;2.07;67.06
68145;BME280;55400;51.824;-0.196;2024-01-10T10:47:39;101993.91;;;2.13;66.95
68145;BME280;55400;51.824;-0.196;2024-01-10T10:51:39;101993.91;;;2.10;66.95
68145;BME280;55400;51.824;-0.196;2024-01-10T10:55:39;101988.67;;;2.15;67.08
68145;BME280;55400;51.824;-0.196;2024-01-10T10:59:39;101986.82;;;2.20;67.06
68145;BME280;55400;51.824;-0.196;2024-01-10T11:03:39;101980.12999999999;;;2.24;66.73
68145;BME280;55400;51.824;-0.196;2024-01-10T11:07:39;101977.72;;;2.28;66.73
68145;BME280;55400;51.824;-0.196;2024-01-10T11:11:43;101977.72;;;2.31;66.76
68145;BME280;55400;51.824;-0.196;2024-01-10T11:19:43;101984.42;;;2.37;66.89
68145;BME280;55400;51.824;-0.196;2024-01-10T11:23:39;101981.23000000001;;;2.39;66.80
68145;BME280;55400;51.824;-0.196;2024-01-10T11:27:39;101982.19;;;2.48;66.84
68145;BME280;55400;51.824;-0.196;2024-01-10T11:31:39;101982.19;;;2.52;66.68
68145;BME280;55400;51.824;-0.196;2024-01-10T11:35:39;101987.39;;;2.56;66.71
68145;BME280;55400;51.824;-0.196;2024-01-10T11:39:41;101986.79;;;2.58;66.58
68145;BME280;55400;51.824;-0.196;2024-01-10T11:43:39;101986.79;;;2.57;66.73
68145;BME280;55400;51.824;-0.196;2024-01-10T11:47:39;101973.32;;;2.58;66.60
68145;BME280;55400;51.824;-0.196;2024-01-10T11:51:41;101975.06;;;2.63;66.76
68145;BME280;55400;51.824;-0.196;2024-01-10T11:55:46;101975.06;;;2.69;66.90
68145;BME280;55400;51.824;-0.196;2024-01-10T11:59:40;101972.12;;;2.67;66.74
68145;BME280;55400;51.824;-0.196;2024-01-10T12:03:39;101960.25;;;2.78;66.74
68145;BME280;55400;51.824;-0.196;2024-01-10T12:07:40;101967.72;;;2.82;66.74
68145;BME280;55400;51.824;-0.196;2024-01-10T12:11:39;101961.25;;;2.83;66.75
68145;BME280;55400;51.824;-0.196;2024-01-10T12:15:39;101962.07;;;2.88;66.72
68145;BME280;55400;51.824;-0.196;2024-01-10T12:27:39;101954.93000000001;;;2.99;66.97
68145;BME280;55400;51.824;-0.196;2024-01-10T12:31:39;101950.45;;;3.03;66.79
68145;BME280;55400;51.824;-0.196;2024-01-10T12:35:39;101948.36;;;3.06;66.80
68145;BME280;55400;51.824;-0.196;2024-01-10T12:39:39;101942.44;;;3.07;66.63
68145;BME280;55400;51.824;-0.196;2024-01-10T12:43:39;101948.32;;;3.11;66.69
68145;BME280;55400;51.824;-0.196;2024-01-10T12:47:39;101936.06;;;3.19;66.81
68145;BME280;55400;51.824;-0.196;2024-01-10T12:51:39;101936.06;;;3.21;66.59
68145;BME280;55400;51.824;-0.196;2024-01-10T12:55:39;101933.5;;;3.26;66.56
68145;BME280;55400;51.824;-0.196;2024-01-10T12:59:15;101926.79000000001;;;3.26;unavailable
68145;BME280;55400;51.824;-0.196;2024-01-10T12:59:39;101926.79000000001;;;3.28;66.36
68145;BME280;55400;51.824;-0.196;2024-01-10T13:03:39;101915.39;;;3.29;66.22
68145;BME280;55400;51.824;-0.196;2024-01-10T13:07:39;101914.97;;;3.32;66.12
68145;BME280;55400;51.824;-0.196;2024-01-10T13:11:39;101914.26;;;3.37;66.02
68145;BME280;55400;51.824;-0.196;2024-01-10T13:15:39;101913.05;;;3.42;65.81
68145;BME280;55400;51.824;-0.196;2024-01-10T13:19:39;101906.17;;;3.41;65.56
68145;BME280;55400;51.824;-0.196;2024-01-10T13:24:01;101896.59;;;3.50;65.08
68145;BME280;55400;51.824;-0.196;2024-01-10T13:27:39;101896.59;;;3.53;65.08
68145;BME280;55400;51.824;-0.196;2024-01-10T13:31:39;101898.47;;;3.55;64.60
68145;BME280;55400;51.824;-0.196;2024-01-10T13:35:39;101889.47;;;3.58;64.43
68145;BME280;55400;51.824;-0.196;2024-01-10T13:39:40;101883.29;;;3.62;64.23
68145;BME280;55400;51.824;-0.196;2024-01-10T13:43:39;101883.29;;;3.59;63.85
68145;BME280;55400;51.824;-0.196;2024-01-10T13:47:39;101892.1;;;3.62;63.71
68145;BME280;55400;51.824;-0.196;2024-01-10T13:51:39;101892.1;;;3.67;63.50
68145;BME280;55400;51.824;-0.196;2024-01-10T13:55:39;101889.23999999999;;;3.73;62.96
68145;BME280;55400;51.824;-0.196;2024-01-10T13:59:39;101888.31999999999;;;3.77;62.53
68145;BME280;55400;51.824;-0.196;2024-01-10T14:03:39;101892.03;;;3.78;62.35
68145;BME280;55400;51.824;-0.196;2024-01-10T14:07:39;101891.81999999999;;;3.79;62.09
68145;BME280;55400;51.824;-0.196;2024-01-10T14:11:39;101893.84;;;3.91;61.87
68145;BME280;55400;51.824;-0.196;2024-01-10T14:15:39;101893.84;;;4.02;61.68
68145;BME280;55400;51.824;-0.196;2024-01-10T14:19:39;101890.81;;;4.14;61.47
68145;BME280;55400;51.824;-0.196;2024-01-10T14:23:39;101890.59999999999;;;4.25;61.35
68145;BME280;55400;51.824;-0.196;2024-01-10T14:27:39;101891.18999999999;;;4.29;61.09
68145;BME280;55400;51.824;-0.196;2024-01-10T14:31:39;101885.33;;;4.30;60.77
68145;BME280;55400;51.824;-0.196;2024-01-10T14:35:39;101888.16;;;4.22;60.22
68145;BME280;55400;51.824;-0.196;2024-01-10T14:39:39;101874.05;;;4.32;59.97
68145;BME280;55400;51.824;-0.196;2024-01-10T14:43:39;101883.86;;;4.37;59.93
68145;BME280;55400;51.824;-0.196;2024-01-10T14:47:39;101888.9;;;4.40;59.94
68145;BME280;55400;51.824;-0.196;2024-01-10T14:55:39;101881.0;;;4.43;59.71
68145;BME280;55400;51.824;-0.196;2024-01-10T14:59:40;101882.15;;;4.42;59.74
68145;BME280;55400;51.824;-0.196;2024-01-10T15:03:39;101885.05;;;4.41;59.59
68145;BME280;55400;51.824;-0.196;2024-01-10T15:07:39;101885.49;;;4.37;59.55
68145;BME280;55400;51.824;-0.196;2024-01-10T15:11:39;101882.15;;;4.34;59.48
68145;BME280;55400;51.824;-0.196;2024-01-10T15:15:39;101880.58;;;4.31;59.27
68145;BME280;55400;51.824;-0.196;2024-01-10T15:19:39;101880.58;;;4.32;59.27
68145;BME280;55400;51.824;-0.196;2024-01-10T15:23:39;101882.7;;;4.34;59.00
68145;BME280;55400;51.824;-0.196;2024-01-10T15:27:39;101873.87999999999;;;4.37;58.75
68145;BME280;55400;51.824;-0.196;2024-01-10T15:31:39;101873.87999999999;;;4.30;58.55
68145;BME280;55400;51.824;-0.196;2024-01-10T15:35:39;101875.51;;;4.31;58.33
68145;BME280;55400;51.824;-0.196;2024-01-10T15:39:40;101875.51;;;4.28;58.07
68145;BME280;55400;51.824;-0.196;2024-01-10T15:43:39;101875.58;;;4.36;57.95
68145;BME280;55400;51.824;-0.196;2024-01-10T15:48:12;101881.22;;;4.51;57.32
68145;BME280;55400;51.824;-0.196;2024-01-10T15:51:39;101881.22;;;4.57;57.32
68145;BME280;55400;51.824;-0.196;2024-01-10T15:55:39;101876.64;;;4.63;57.19
68145;BME280;55400;51.824;-0.196;2024-01-10T15:59:39;101882.95000000001;;;4.54;57.16
68145;BME280;55400;51.824;-0.196;2024-01-10T16:03:39;101890.03;;;4.45;57.34
68145;BME280;55400;51.824;-0.196;2024-01-10T16:07:39;101885.37;;;4.29;57.66
68145;BME280;55400;51.824;-0.196;2024-01-10T16:11:39;101885.37;;;4.26;57.95
68145;BME280;55400;51.824;-0.196;2024-01-10T16:15:40;101890.88;;;4.20;58.27
68145;BME280;55400;51.824;-0.196;2024-01-10T16:19:39;101890.59;;;4.12;58.92
68145;BME280;55400;51.824;-0.196;2024-01-10T16:23:40;101888.54;;;4.10;59.09
68145;BME280;55400;51.824;-0.196;2024-01-10T16:31:40;101897.24;;;4.07;59.28
68145;BME280;55400;51.824;-0.196;2024-01-10T16:35:40;101899.83;;;3.98;59.58
68145;BME280;55400;51.824;-0.196;2024-01-10T16:39:40;101899.83;;;3.88;59.58
68145;BME280;55400;51.824;-0.196;2024-01-10T16:43:39;101896.40000000001;;;3.87;59.74
68145;BME280;55400;51.824;-0.196;2024-01-10T16:47:40;101914.09;;;3.81;60.09
68145;BME280;55400;51.824;-0.196;2024-01-10T16:51:40;101914.09;;;3.75;60.09
68145;BME280;55400;51.824;-0.196;2024-01-10T16:55:40;101919.34999999999;;;3.68;60.40
68145;BME280;55400;51.824;-0.196;2024-01-10T16:59:40;101913.3;;;3.66;60.63
68145;BME280;55400;51.824;-0.196;2024-01-10T17:03:40;101919.23000000001;;;3.63;60.86
68145;BME280;55400;51.824;-0.196;2024-01-10T17:07:40;101925.75;;;3.51;61.05
68145;BME280;55400;51.824;-0.196;2024-01-10T17:11:40;101931.25;;;3.50;61.36
68145;BME280;55400;51.824;-0.196;2024-01-10T17:15:40;101931.25;;;3.41;61.50
68145;BME280;55400;51.824;-0.196;2024-01-10T17:19:40;101934.05;;;3.33;61.77
68145;BME280;55400;51.824;-0.196;2024-01-10T17:23:40;101937.42;;;3.36;62.40
68145;BME280;55400;51.824;-0.196;2024-01-10T17:27:40;101942.31;;;3.33;62.65
68145;BME280;55400;51.824;-0.196;2024-01-10T17:31:40;101940.03;;;3.37;62.86
68145;BME280;55400;51.824;-0.196;2024-01-10T17:35:40;101952.85;;;3.39;63.06
68145;BME280;55400;51.824;-0.196;2024-01-10T17:39:40;101953.75;;;3.40;63.27
68145;BME280;55400;51.824;-0.196;2024-01-10T17:43:40;101958.09000000001;;;3.41;63.47
68145;BME280;55400;51.824;-0.196;2024-01-10T17:51:40;101965.06000000001;;;3.39;63.93
68145;BME280;55400;51.824;-0.196;2024-01-10T17:55:40;101960.35;;;3.37;63.93
68145;BME280;55400;51.824;-0.196;2024-01-10T17:59:40;101960.35;;;3.33;63.96
68145;BME280;55400;51.824;-0.196;2024-01-10T18:03:40;101977.36;;;3.28;64.25
68145;BME280;55400;51.824;-0.196;2024-01-10T18:07:40;101983.59;;;3.20;64.76
68145;BME280;55400;51.824;-0.196;2024-01-10T18:11:46;101984.48;;;3.18;64.95
68145;BME280;55400;51.824;-0.196;2024-01-10T18:15:40;101984.93999999999;;;3.14;64.95
68145;BME280;55400;51.824;-0.196;2024-01-10T18:19:40;101984.93999999999;;;3.07;65.27
68145;BME280;55400;51.824;-0.196;2024-01-10T18:24:16;101987.19;;;3.05;66.01
68145;BME280;55400;51.824;-0.196;2024-01-10T18:29:03;101987.66;;;3.06;66.23
68145;BME280;55400;51.824;-0.196;2024-01-10T18:31:40;101986.41;;;3.14;66.23
68145;BME280;55400;51.824;-0.196;2024-01-10T18:35:40;101986.41;;;3.18;66.22
68145;BME280;55400;51.824;-0.196;2024-01-10T18:39:40;101985.31;;;3.22;66.21
68145;BME280;55400;51.824;-0.196;2024-01-10T18:43:40;101993.65000000001;;;3.24;66.23
68145;BME280;55400;51.824;-0.196;2024-01-10T18:47:40;101995.23000000001;;;3.27;66.13
68145;BME280;55400;51.824;-0.196;2024-01-10T18:51:41;102005.12999999999;;;3.26;66.21
68145;BME280;55400;51.824;-0.196;2024-01-10T18:55:40;102020.01000000001;;;3.27;66.47
68145;BME280;55400;51.824;-0.196;2024-01-10T18:59:40;102019.34;;;3.24;66.60
68145;BME280;55400;51.824;-0.196;2024-01-10T19:07:40;102030.73000000001;;;3.21;66.73
68145;BME280;55400;51.824;-0.196;2024-01-10T19:15:40;102029.75;;;3.14;67.02
68145;BME280;55400;51.824;-0.196;2024-01-10T19:19:40;102035.20999999999;;;3.03;67.02
68145;BME280;55400;51.824;-0.196;2024-01-10T19:23:40;102035.20999999999;;;2.91;66.89
68145;BME280;55400;51.824;-0.196;2024-01-10T19:27:40;102028.44;;;2.82;67.08
68145;BME280;55400;51.824;-0.196;2024-01-10T19:31:40;102026.64;;;2.76;67.32
68145;BME280;55400;51.824;-0.196;2024-01-10T19:37:05;102032.81;;;2.81;67.14
68145;BME280;55400;51.824;-0.196;2024-01-10T19:40:06;102042.31;;;2.87;66.75
68145;BME280;55400;51.824;-0.196;2024-01-10T19:42:41;102042.31;;;2.87;66.75
68145;BME280;55400;51.824;-0.196;2024-01-10T19:47:40;102044.6;;;2.89;66.80
68145;BME280;55400;51.824;-0.196;2024-01-10T19:55:40;102044.44;;;2.85;66.71
68145;BME280;55400;51.824;-0.196;2024-01-10T19:59:40;102041.86;;;2.84;66.60
68145;BME280;55400;51.824;-0.196;2024-01-10T20:03:40;102046.68000000001;;;2.78;66.79
68145;BME280;55400;51.824;-0.196;2024-01-10T20:07:40;102045.87;;;2.77;66.96
68145;BME280;55400;51.824;-0.196;2024-01-10T20:15:40;102052.8;;;2.69;67.13
68145;BME280;55400;51.824;-0.196;2024-01-10T20:23:40;102059.98;;;2.66;67.31
68145;BME280;55400;51.824;-0.196;2024-01-10T20:27:40;102061.99;;;2.59;67.53
68145;BME280;55400;51.824;-0.196;2024-01-10T20:31:40;102064.39;;;2.60;67.54
68145;BME280;55400;51.824;-0.196;2024-01-10T20:35:40;102063.87;;;2.61;67.46
68145;BME280;55400;51.824;-0.196;2024-01-10T20:39:40;102063.87;;;2.58;67.46
68145;BME280;55400;51.824;-0.196;2024-01-10T20:43:40;102071.7;;;2.53;67.65
68145;BME280;55400;51.824;-0.196;2024-01-10T20:47:40;102082.76;;;2.52;67.89
68145;BME280;55400;51.824;-0.196;2024-01-10T20:51:40;102089.0;;;2.53;67.94
68145;BME280;55400;51.824;-0.196;2024-01-10T20:55:40;102089.0;;;2.46;67.94
68145;BME280;55400;51.824;-0.196;2024-01-10T20:59:40;102101.48000000001;;;2.48;67.92
68145;BME280;55400;51.824;-0.196;2024-01-10T21:03:40;102101.48000000001;;;2.46;68.02
68145;BME280;55400;51.824;-0.196;2024-01-10T21:07:40;102098.27;;;2.37;68.28
68145;BME280;55400;51.824;-0.196;2024-01-10T21:11:40;102086.61;;;2.43;68.39
68145;BME280;55400;51.824;-0.196;2024-01-10T21:15:40;102102.73;;;2.39;68.47
68145;BME280;55400;51.824;-0.196;2024-01-10T21:19:40;102102.73;;;2.42;68.60
68145;BME280;55400;51.824;-0.196;2024-01-10T21:23:40;102112.23;;;2.44;68.46
68145;BME280;55400;51.824;-0.196;2024-01-10T21:27:41;102107.48;;;2.35;68.25
68145;BME280;55400;51.824;-0.196;2024-01-10T21:31:40;102107.48;;;2.33;68.71
68145;BME280;55400;51.824;-0.196;2024-01-10T21:35:41;102108.11;;;2.29;68.76
68145;BME280;55400;51.824;-0.196;2024-01-10T21:39:40;102108.11;;;2.26;69.05
68145;BME280;55400;51.824;-0.196;2024-01-10T21:43:40;102105.8;;;2.22;69.11
68145;BME280;55400;51.824;-0.196;2024-01-10T21:47:40;102104.3;;;2.24;69.13
68145;BME280;55400;51.824;-0.196;2024-01-10T21:51:41;102117.28;;;2.23;69.10
68145;BME280;55400;51.824;-0.196;2024-01-10T21:59:40;102124.41;;;2.22;69.11
68145;BME280;55400;51.824;-0.196;2024-01-10T22:03:41;102132.84;;;2.20;69.35
68145;BME280;55400;51.824;-0.196;2024-01-10T22:07:40;102132.84;;;2.19;69.35
68145;BME280;55400;51.824;-0.196;2024-01-10T22:11:40;102150.94;;;2.15;69.38
68145;BME280;55400;51.824;-0.196;2024-01-10T22:23:41;102159.74;;;2.12;69.69
68145;BME280;55400;51.824;-0.196;2024-01-10T22:27:40;102160.33;;;2.05;69.67
68145;BME280;55400;51.824;-0.196;2024-01-10T22:31:40;102158.14;;;2.04;69.91